createdAt,value
2023-03-20T00:27:40.820Z,9.84
2023-03-20T00:57:44.081Z,8.49
2023-03-20T01:27:47.801Z,11.97
2023-03-20T01:57:51.067Z,10.67
2023-03-20T02:27:54.759Z,11.39
2023-03-20T02:57:58.091Z,13.78
2023-03-20T03:28:01.127Z,15.01
2023-03-20T03:58:04.453Z,13.08
2023-03-20T04:28:08.074Z,13.36
2023-03-20T04:58:11.620Z,14.55
2023-03-20T05:28:15.164Z,15.61
2023-03-20T05:58:18.592Z,15.19
2023-03-20T06:28:21.570Z,13.56
2023-03-20T06:58:24.803Z,12.94
2023-03-20T07:28:27.776Z,14.49
2023-03-20T07:58:31.032Z,17.16
2023-03-20T08:28:47.055Z,16.57
2023-03-20T08:58:51.077Z,14.73
2023-03-20T09:28:55.288Z,18.39
2023-03-20T09:58:58.281Z,16.02
2023-03-20T10:29:01.617Z,18.36
2023-03-20T10:59:05.678Z,18.04
2023-03-20T11:29:09.316Z,17.32
2023-03-20T11:59:12.671Z,17.04
2023-03-20T12:29:17.856Z,18.70
2023-03-20T12:59:20.976Z,16.90
2023-03-20T13:29:27.464Z,18.97
2023-03-20T13:59:30.582Z,16.43
2023-03-20T14:29:34.243Z,15.66
2023-03-20T14:59:37.101Z,17.26
2023-03-20T15:29:40.692Z,14.60
2023-03-20T15:59:43.529Z,17.05
2023-03-20T16:29:48.270Z,16.36
2023-03-20T16:59:51.214Z,15.33
2023-03-20T17:29:54.898Z,14.88
2023-03-20T17:59:57.854Z,13.74
2023-03-20T18:30:01.800Z,14.00
2023-03-20T19:00:05.083Z,14.84
2023-03-20T19:30:09.166Z,14.59
2023-03-20T20:30:35.744Z,13.90
2023-03-20T21:00:50.186Z,16.61
2023-03-20T21:31:22.764Z,12.81
2023-03-20T22:32:33.130Z,14.20
2023-03-20T23:02:06.310Z,14.12
2023-03-20T23:32:09.846Z,11.64
